sensor_id;sensor_type;location;lat;lon;timestamp;P1;durP1;ratioP1;P2;durP2;ratioP2
4468;SDS011;2247;42.666;23.292;2023-04-01T00:01:20;19.37;;;10.13;;
4468;SDS011;2247;42.666;23.292;2023-04-01T00:03:47;22.17;;;10.47;;
4468;SDS011;2247;42.666;23.292;2023-04-01T00:06:14;20.57;;;10.47;;
4468;SDS011;2247;42.666;23.292;2023-04-01T00:08:43;21.43;;;10.30;;
4468;SDS011;2247;42.666;23.292;2023-04-01T00:11:11;23.43;;;10.80;;
4468;SDS011;2247;42.666;23.292;2023-04-01T00:13:38;18.43;;;9.70;;
4468;SDS011;2247;42.666;23.292;2023-04-01T00:16:06;21.23;;;10.30;;
4468;SDS011;2247;42.666;23.292;2023-04-01T00:18:33;31.33;;;16.10;;
4468;SDS011;2247;42.666;23.292;2023-04-01T00:21:00;30.63;;;17.30;;
4468;SDS011;2247;42.666;23.292;2023-04-01T00:23:27;51.63;;;30.00;;
4468;SDS011;2247;42.666;23.292;2023-04-01T00:25:54;41.63;;;21.93;;
4468;SDS011;2247;42.666;23.292;2023-04-01T00:28:22;37.47;;;20.20;;
4468;SDS011;2247;42.666;23.292;2023-04-01T00:30:49;40.43;;;19.43;;
4468;SDS011;2247;42.666;23.292;2023-04-01T00:33:16;26.97;;;16.00;;
4468;SDS011;2247;42.666;23.292;2023-04-01T00:35:43;29.03;;;15.60;;
4468;SDS011;2247;42.666;23.292;2023-04-01T00:38:10;28.90;;;15.80;;
4468;SDS011;2247;42.666;23.292;2023-04-01T00:40:38;24.00;;;13.60;;
4468;SDS011;2247;42.666;23.292;2023-04-01T00:43:11;23.00;;;12.10;;
4468;SDS011;2247;42.666;23.292;2023-04-01T00:45:42;33.10;;;12.67;;
4468;SDS011;2247;42.666;23.292;2023-04-01T00:48:10;25.37;;;12.57;;
4468;SDS011;2247;42.666;23.292;2023-04-01T00:50:40;21.17;;;12.33;;
4468;SDS011;2247;42.666;23.292;2023-04-01T00:53:08;26.53;;;12.70;;
4468;SDS011;2247;42.666;23.292;2023-04-01T00:55:38;28.17;;;12.70;;
4468;SDS011;2247;42.666;23.292;2023-04-01T00:58:11;24.30;;;12.13;;
4468;SDS011;2247;42.666;23.292;2023-04-01T01:00:42;24.27;;;12.20;;
4468;SDS011;2247;42.666;23.292;2023-04-01T01:03:09;23.57;;;11.40;;
4468;SDS011;2247;42.666;23.292;2023-04-01T01:05:43;18.00;;;10.90;;
4468;SDS011;2247;42.666;23.292;2023-04-01T01:08:23;24.10;;;11.00;;
4468;SDS011;2247;42.666;23.292;2023-04-01T01:10:56;18.20;;;10.10;;
4468;SDS011;2247;42.666;23.292;2023-04-01T01:13:25;20.87;;;9.97;;
4468;SDS011;2247;42.666;23.292;2023-04-01T01:15:59;19.17;;;10.40;;
4468;SDS011;2247;42.666;23.292;2023-04-01T01:18:32;18.47;;;9.30;;
4468;SDS011;2247;42.666;23.292;2023-04-01T01:26:54;17.53;;;7.57;;
4468;SDS011;2247;42.666;23.292;2023-04-01T01:35:38;22.13;;;6.93;;
4468;SDS011;2247;42.666;23.292;2023-04-01T01:38:08;10.83;;;6.43;;
4468;SDS011;2247;42.666;23.292;2023-04-01T01:40:39;15.07;;;5.80;;
4468;SDS011;2247;42.666;23.292;2023-04-01T01:43:09;10.27;;;6.20;;
4468;SDS011;2247;42.666;23.292;2023-04-01T01:45:40;8.13;;;5.90;;
4468;SDS011;2247;42.666;23.292;2023-04-01T01:48:12;12.70;;;6.43;;
4468;SDS011;2247;42.666;23.292;2023-04-01T01:50:40;10.60;;;5.53;;
4468;SDS011;2247;42.666;23.292;2023-04-01T01:53:09;10.70;;;5.00;;
4468;SDS011;2247;42.666;23.292;2023-04-01T01:55:37;13.70;;;5.90;;
4468;SDS011;2247;42.666;23.292;2023-04-01T01:58:08;10.43;;;6.17;;
4468;SDS011;2247;42.666;23.292;2023-04-01T02:00:41;10.30;;;6.20;;
4468;SDS011;2247;42.666;23.292;2023-04-01T02:03:11;13.53;;;6.37;;
4468;SDS011;2247;42.666;23.292;2023-04-01T02:05:41;9.23;;;5.40;;
4468;SDS011;2247;42.666;23.292;2023-04-01T02:08:09;13.23;;;5.80;;
4468;SDS011;2247;42.666;23.292;2023-04-01T02:10:42;8.07;;;4.57;;
4468;SDS011;2247;42.666;23.292;2023-04-01T02:13:16;11.80;;;4.93;;
4468;SDS011;2247;42.666;23.292;2023-04-01T02:15:48;13.53;;;4.97;;
4468;SDS011;2247;42.666;23.292;2023-04-01T02:18:21;10.83;;;4.70;;
4468;SDS011;2247;42.666;23.292;2023-04-01T02:20:50;9.23;;;5.23;;
4468;SDS011;2247;42.666;23.292;2023-04-01T02:23:18;9.20;;;4.80;;
4468;SDS011;2247;42.666;23.292;2023-04-01T02:25:46;7.07;;;4.27;;
4468;SDS011;2247;42.666;23.292;2023-04-01T02:28:13;10.03;;;5.17;;
4468;SDS011;2247;42.666;23.292;2023-04-01T02:30:45;12.00;;;4.60;;
4468;SDS011;2247;42.666;23.292;2023-04-01T02:33:14;9.30;;;4.77;;
4468;SDS011;2247;42.666;23.292;2023-04-01T02:35:43;12.10;;;5.37;;
4468;SDS011;2247;42.666;23.292;2023-04-01T02:38:12;8.73;;;5.03;;
4468;SDS011;2247;42.666;23.292;2023-04-01T02:40:42;12.33;;;4.70;;
4468;SDS011;2247;42.666;23.292;2023-04-01T02:43:10;12.17;;;5.30;;
4468;SDS011;2247;42.666;23.292;2023-04-01T02:45:37;13.90;;;5.67;;
4468;SDS011;2247;42.666;23.292;2023-04-01T02:48:05;13.50;;;5.70;;
4468;SDS011;2247;42.666;23.292;2023-04-01T02:50:32;8.83;;;5.47;;
4468;SDS011;2247;42.666;23.292;2023-04-01T02:52:59;10.10;;;5.67;;
4468;SDS011;2247;42.666;23.292;2023-04-01T02:55:29;10.23;;;5.87;;
4468;SDS011;2247;42.666;23.292;2023-04-01T02:57:56;12.27;;;5.80;;
4468;SDS011;2247;42.666;23.292;2023-04-01T03:00:23;15.20;;;6.23;;
4468;SDS011;2247;42.666;23.292;2023-04-01T03:02:50;13.70;;;6.00;;
4468;SDS011;2247;42.666;23.292;2023-04-01T03:05:17;15.67;;;6.60;;
4468;SDS011;2247;42.666;23.292;2023-04-01T03:07:45;8.50;;;5.80;;
4468;SDS011;2247;42.666;23.292;2023-04-01T03:10:11;10.50;;;6.27;;
4468;SDS011;2247;42.666;23.292;2023-04-01T03:12:40;12.20;;;6.30;;
4468;SDS011;2247;42.666;23.292;2023-04-01T03:15:08;14.10;;;6.23;;
4468;SDS011;2247;42.666;23.292;2023-04-01T03:17:37;12.70;;;7.40;;
4468;SDS011;2247;42.666;23.292;2023-04-01T03:20:04;16.90;;;7.50;;
4468;SDS011;2247;42.666;23.292;2023-04-01T03:22:33;11.73;;;8.10;;
4468;SDS011;2247;42.666;23.292;2023-04-01T03:25:00;24.27;;;8.20;;
4468;SDS011;2247;42.666;23.292;2023-04-01T03:27:28;13.73;;;7.33;;
4468;SDS011;2247;42.666;23.292;2023-04-01T03:29:56;13.20;;;7.47;;
4468;SDS011;2247;42.666;23.292;2023-04-01T03:32:23;20.13;;;8.57;;
4468;SDS011;2247;42.666;23.292;2023-04-01T03:34:50;15.77;;;8.53;;
4468;SDS011;2247;42.666;23.292;2023-04-01T03:37:17;18.97;;;8.83;;
4468;SDS011;2247;42.666;23.292;2023-04-01T03:39:46;20.97;;;9.20;;
4468;SDS011;2247;42.666;23.292;2023-04-01T03:42:25;16.63;;;7.73;;
4468;SDS011;2247;42.666;23.292;2023-04-01T03:44:52;12.20;;;7.63;;
4468;SDS011;2247;42.666;23.292;2023-04-01T03:47:20;14.57;;;7.77;;
4468;SDS011;2247;42.666;23.292;2023-04-01T03:49:47;11.67;;;5.53;;
4468;SDS011;2247;42.666;23.292;2023-04-01T03:52:14;13.60;;;6.30;;
4468;SDS011;2247;42.666;23.292;2023-04-01T03:54:41;14.13;;;6.10;;
4468;SDS011;2247;42.666;23.292;2023-04-01T03:57:09;11.40;;;5.27;;
4468;SDS011;2247;42.666;23.292;2023-04-01T03:59:36;9.60;;;5.60;;
4468;SDS011;2247;42.666;23.292;2023-04-01T04:02:07;17.17;;;7.23;;
4468;SDS011;2247;42.666;23.292;2023-04-01T04:44:38;11.33;;;6.90;;
4468;SDS011;2247;42.666;23.292;2023-04-01T04:47:09;14.10;;;7.93;;
4468;SDS011;2247;42.666;23.292;2023-04-01T04:52:16;14.07;;;7.37;;
4468;SDS011;2247;42.666;23.292;2023-04-01T04:54:45;17.80;;;8.07;;
4468;SDS011;2247;42.666;23.292;2023-04-01T05:00:00;12.27;;;6.40;;
4468;SDS011;2247;42.666;23.292;2023-04-01T05:05:17;14.57;;;7.60;;
4468;SDS011;2247;42.666;23.292;2023-04-01T05:07:44;15.20;;;7.60;;
4468;SDS011;2247;42.666;23.292;2023-04-01T05:10:11;17.03;;;8.53;;
4468;SDS011;2247;42.666;23.292;2023-04-01T05:12:38;11.77;;;7.73;;
4468;SDS011;2247;42.666;23.292;2023-04-01T05:15:08;12.17;;;7.93;;
4468;SDS011;2247;42.666;23.292;2023-04-01T05:25:21;19.70;;;7.97;;
4468;SDS011;2247;42.666;23.292;2023-04-01T05:27:49;14.67;;;8.00;;
4468;SDS011;2247;42.666;23.292;2023-04-01T05:30:18;11.80;;;7.83;;
4468;SDS011;2247;42.666;23.292;2023-04-01T05:32:45;15.17;;;7.90;;
4468;SDS011;2247;42.666;23.292;2023-04-01T05:35:12;17.50;;;8.13;;
4468;SDS011;2247;42.666;23.292;2023-04-01T05:37:39;33.83;;;7.10;;
4468;SDS011;2247;42.666;23.292;2023-04-01T05:40:06;19.63;;;6.70;;
4468;SDS011;2247;42.666;23.292;2023-04-01T05:42:34;10.13;;;5.97;;
4468;SDS011;2247;42.666;23.292;2023-04-01T05:45:01;11.50;;;7.03;;
4468;SDS011;2247;42.666;23.292;2023-04-01T05:47:29;12.00;;;7.47;;
4468;SDS011;2247;42.666;23.292;2023-04-01T05:49:56;10.70;;;6.23;;
4468;SDS011;2247;42.666;23.292;2023-04-01T05:52:23;12.53;;;6.60;;
4468;SDS011;2247;42.666;23.292;2023-04-01T05:54:51;18.33;;;6.77;;
4468;SDS011;2247;42.666;23.292;2023-04-01T05:57:17;15.27;;;5.50;;
4468;SDS011;2247;42.666;23.292;2023-04-01T05:59:44;9.43;;;5.83;;
4468;SDS011;2247;42.666;23.292;2023-04-01T06:02:11;15.90;;;6.07;;
4468;SDS011;2247;42.666;23.292;2023-04-01T06:04:40;8.90;;;6.00;;
4468;SDS011;2247;42.666;23.292;2023-04-01T06:07:14;10.73;;;5.80;;
4468;SDS011;2247;42.666;23.292;2023-04-01T06:09:42;10.00;;;5.30;;
4468;SDS011;2247;42.666;23.292;2023-04-01T06:12:23;10.27;;;6.33;;
4468;SDS011;2247;42.666;23.292;2023-04-01T06:15:12;6.27;;;4.77;;
4468;SDS011;2247;42.666;23.292;2023-04-01T06:17:50;14.07;;;6.03;;
4468;SDS011;2247;42.666;23.292;2023-04-01T06:20:39;15.50;;;5.50;;
4468;SDS011;2247;42.666;23.292;2023-04-01T06:23:19;8.70;;;4.60;;
4468;SDS011;2247;42.666;23.292;2023-04-01T06:26:18;17.37;;;5.33;;
4468;SDS011;2247;42.666;23.292;2023-04-01T06:28:56;8.87;;;5.07;;
4468;SDS011;2247;42.666;23.292;2023-04-01T06:31:52;10.80;;;4.33;;
4468;SDS011;2247;42.666;23.292;2023-04-01T06:34:42;8.53;;;4.47;;
4468;SDS011;2247;42.666;23.292;2023-04-01T06:37:38;7.30;;;4.17;;
4468;SDS011;2247;42.666;23.292;2023-04-01T06:43:14;9.47;;;4.20;;
4468;SDS011;2247;42.666;23.292;2023-04-01T06:45:50;6.40;;;4.20;;
4468;SDS011;2247;42.666;23.292;2023-04-01T06:48:34;6.87;;;4.60;;
4468;SDS011;2247;42.666;23.292;2023-04-01T06:51:19;11.60;;;4.50;;
4468;SDS011;2247;42.666;23.292;2023-04-01T06:53:56;6.93;;;4.17;;
4468;SDS011;2247;42.666;23.292;2023-04-01T06:56:29;16.67;;;6.30;;
4468;SDS011;2247;42.666;23.292;2023-04-01T06:59:00;8.43;;;4.70;;
4468;SDS011;2247;42.666;23.292;2023-04-01T07:01:32;9.90;;;5.30;;
4468;SDS011;2247;42.666;23.292;2023-04-01T07:04:05;11.43;;;5.83;;
4468;SDS011;2247;42.666;23.292;2023-04-01T07:06:36;9.03;;;5.97;;
4468;SDS011;2247;42.666;23.292;2023-04-01T07:09:11;16.03;;;6.50;;
4468;SDS011;2247;42.666;23.292;2023-04-01T07:11:43;10.60;;;5.30;;
4468;SDS011;2247;42.666;23.292;2023-04-01T07:14:12;16.43;;;6.30;;
4468;SDS011;2247;42.666;23.292;2023-04-01T07:16:43;12.50;;;6.30;;
4468;SDS011;2247;42.666;23.292;2023-04-01T07:19:16;11.60;;;5.30;;
4468;SDS011;2247;42.666;23.292;2023-04-01T07:21:48;14.40;;;5.67;;
4468;SDS011;2247;42.666;23.292;2023-04-01T07:24:20;9.40;;;5.73;;
4468;SDS011;2247;42.666;23.292;2023-04-01T07:26:52;18.57;;;6.33;;
4468;SDS011;2247;42.666;23.292;2023-04-01T07:29:21;12.53;;;6.47;;
4468;SDS011;2247;42.666;23.292;2023-04-01T07:34:41;11.37;;;5.97;;
4468;SDS011;2247;42.666;23.292;2023-04-01T07:37:17;11.90;;;5.47;;
4468;SDS011;2247;42.666;23.292;2023-04-01T07:39:55;13.83;;;6.30;;
4468;SDS011;2247;42.666;23.292;2023-04-01T07:42:31;8.77;;;5.70;;
4468;SDS011;2247;42.666;23.292;2023-04-01T07:45:12;8.10;;;5.57;;
4468;SDS011;2247;42.666;23.292;2023-04-01T07:47:51;17.40;;;5.67;;
4468;SDS011;2247;42.666;23.292;2023-04-01T07:50:29;12.60;;;5.80;;
4468;SDS011;2247;42.666;23.292;2023-04-01T07:53:00;11.00;;;5.40;;
4468;SDS011;2247;42.666;23.292;2023-04-01T07:55:37;9.57;;;5.90;;
4468;SDS011;2247;42.666;23.292;2023-04-01T07:58:10;11.93;;;5.53;;
4468;SDS011;2247;42.666;23.292;2023-04-01T08:00:45;12.73;;;6.80;;
4468;SDS011;2247;42.666;23.292;2023-04-01T08:03:25;17.20;;;5.67;;
4468;SDS011;2247;42.666;23.292;2023-04-01T08:06:00;16.67;;;6.27;;
4468;SDS011;2247;42.666;23.292;2023-04-01T08:08:39;10.73;;;5.57;;
4468;SDS011;2247;42.666;23.292;2023-04-01T08:11:20;17.90;;;5.30;;
4468;SDS011;2247;42.666;23.292;2023-04-01T08:13:58;13.17;;;5.73;;
4468;SDS011;2247;42.666;23.292;2023-04-01T08:16:33;9.20;;;5.47;;
4468;SDS011;2247;42.666;23.292;2023-04-01T08:19:06;12.30;;;5.80;;
4468;SDS011;2247;42.666;23.292;2023-04-01T08:21:43;8.80;;;4.70;;
4468;SDS011;2247;42.666;23.292;2023-04-01T08:24:19;8.93;;;5.33;;
4468;SDS011;2247;42.666;23.292;2023-04-01T08:26:53;18.33;;;5.30;;
4468;SDS011;2247;42.666;23.292;2023-04-01T08:29:23;13.23;;;5.83;;
4468;SDS011;2247;42.666;23.292;2023-04-01T08:31:58;15.73;;;5.90;;
4468;SDS011;2247;42.666;23.292;2023-04-01T08:34:32;18.63;;;6.17;;
4468;SDS011;2247;42.666;23.292;2023-04-01T08:37:04;19.17;;;5.77;;
4468;SDS011;2247;42.666;23.292;2023-04-01T08:39:34;11.73;;;5.20;;
4468;SDS011;2247;42.666;23.292;2023-04-01T08:42:09;10.20;;;5.80;;
4468;SDS011;2247;42.666;23.292;2023-04-01T08:45:09;11.70;;;5.30;;
4468;SDS011;2247;42.666;23.292;2023-04-01T08:47:49;11.97;;;5.30;;
4468;SDS011;2247;42.666;23.292;2023-04-01T08:50:41;10.80;;;5.40;;
4468;SDS011;2247;42.666;23.292;2023-04-01T08:53:34;10.10;;;4.93;;
4468;SDS011;2247;42.666;23.292;2023-04-01T08:56:14;10.60;;;4.30;;
4468;SDS011;2247;42.666;23.292;2023-04-01T08:58:54;8.53;;;4.40;;
4468;SDS011;2247;42.666;23.292;2023-04-01T09:01:51;6.97;;;4.67;;
4468;SDS011;2247;42.666;23.292;2023-04-01T09:04:46;9.23;;;5.03;;
4468;SDS011;2247;42.666;23.292;2023-04-01T09:07:35;10.63;;;4.60;;
4468;SDS011;2247;42.666;23.292;2023-04-01T09:10:23;7.77;;;4.40;;
4468;SDS011;2247;42.666;23.292;2023-04-01T09:16:03;10.67;;;4.17;;
4468;SDS011;2247;42.666;23.292;2023-04-01T09:21:50;7.97;;;4.87;;
4468;SDS011;2247;42.666;23.292;2023-04-01T09:24:41;9.63;;;3.97;;
4468;SDS011;2247;42.666;23.292;2023-04-01T09:27:19;8.13;;;3.70;;
4468;SDS011;2247;42.666;23.292;2023-04-01T09:30:07;11.47;;;4.80;;
4468;SDS011;2247;42.666;23.292;2023-04-01T09:35:48;8.33;;;3.27;;
4468;SDS011;2247;42.666;23.292;2023-04-01T09:38:22;5.53;;;3.50;;
4468;SDS011;2247;42.666;23.292;2023-04-01T09:40:55;20.83;;;3.80;;
4468;SDS011;2247;42.666;23.292;2023-04-01T09:43:27;14.53;;;3.50;;
4468;SDS011;2247;42.666;23.292;2023-04-01T09:48:51;8.10;;;2.73;;
4468;SDS011;2247;42.666;23.292;2023-04-01T09:51:45;4.03;;;2.23;;
4468;SDS011;2247;42.666;23.292;2023-04-01T09:54:24;5.93;;;2.23;;
4468;SDS011;2247;42.666;23.292;2023-04-01T10:00:13;8.50;;;3.50;;
4468;SDS011;2247;42.666;23.292;2023-04-01T10:09:44;7.43;;;3.60;;
4468;SDS011;2247;42.666;23.292;2023-04-01T10:12:32;6.77;;;3.63;;
4468;SDS011;2247;42.666;23.292;2023-04-01T10:22:09;7.37;;;3.63;;
4468;SDS011;2247;42.666;23.292;2023-04-01T10:25:13;7.50;;;4.03;;
4468;SDS011;2247;42.666;23.292;2023-04-01T10:28:08;7.93;;;3.20;;
4468;SDS011;2247;42.666;23.292;2023-04-01T10:31:06;9.10;;;3.53;;
4468;SDS011;2247;42.666;23.292;2023-04-01T10:37:23;5.10;;;3.60;;
4468;SDS011;2247;42.666;23.292;2023-04-01T10:40:25;13.50;;;4.40;;
4468;SDS011;2247;42.666;23.292;2023-04-01T10:46:14;9.90;;;3.43;;
4468;SDS011;2247;42.666;23.292;2023-04-01T10:49:15;8.57;;;3.40;;
4468;SDS011;2247;42.666;23.292;2023-04-01T10:55:22;8.10;;;3.20;;
4468;SDS011;2247;42.666;23.292;2023-04-01T10:58:20;6.97;;;4.10;;
4468;SDS011;2247;42.666;23.292;2023-04-01T11:10:41;8.43;;;3.57;;
4468;SDS011;2247;42.666;23.292;2023-04-01T11:13:43;13.83;;;3.23;;
4468;SDS011;2247;42.666;23.292;2023-04-01T11:16:46;5.07;;;3.30;;
4468;SDS011;2247;42.666;23.292;2023-04-01T11:19:46;5.57;;;3.00;;
4468;SDS011;2247;42.666;23.292;2023-04-01T11:22:40;4.57;;;2.30;;
4468;SDS011;2247;42.666;23.292;2023-04-01T11:25:36;5.43;;;2.40;;
4468;SDS011;2247;42.666;23.292;2023-04-01T11:34:22;7.60;;;2.50;;
4468;SDS011;2247;42.666;23.292;2023-04-01T11:37:08;9.93;;;2.53;;
4468;SDS011;2247;42.666;23.292;2023-04-01T11:39:54;5.50;;;2.73;;
4468;SDS011;2247;42.666;23.292;2023-04-01T11:42:32;9.53;;;2.60;;
4468;SDS011;2247;42.666;23.292;2023-04-01T11:48:12;11.03;;;3.00;;
4468;SDS011;2247;42.666;23.292;2023-04-01T11:51:03;15.00;;;2.60;;
4468;SDS011;2247;42.666;23.292;2023-04-01T11:53:51;7.23;;;2.37;;
4468;SDS011;2247;42.666;23.292;2023-04-01T11:56:29;4.07;;;2.90;;
4468;SDS011;2247;42.666;23.292;2023-04-01T11:59:14;4.10;;;2.73;;
4468;SDS011;2247;42.666;23.292;2023-04-01T12:02:08;4.90;;;3.27;;
4468;SDS011;2247;42.666;23.292;2023-04-01T12:04:57;5.77;;;2.83;;
4468;SDS011;2247;42.666;23.292;2023-04-01T12:07:38;9.23;;;3.07;;
4468;SDS011;2247;42.666;23.292;2023-04-01T12:10:19;5.30;;;2.97;;
4468;SDS011;2247;42.666;23.292;2023-04-01T12:12:52;6.53;;;3.30;;
4468;SDS011;2247;42.666;23.292;2023-04-01T12:15:29;8.37;;;3.90;;
4468;SDS011;2247;42.666;23.292;2023-04-01T12:18:06;5.17;;;3.23;;
4468;SDS011;2247;42.666;23.292;2023-04-01T12:20:45;7.67;;;3.97;;
4468;SDS011;2247;42.666;23.292;2023-04-01T12:26:19;3.70;;;2.90;;
4468;SDS011;2247;42.666;23.292;2023-04-01T12:29:06;6.67;;;3.13;;
4468;SDS011;2247;42.666;23.292;2023-04-01T12:31:47;7.73;;;3.87;;
4468;SDS011;2247;42.666;23.292;2023-04-01T12:34:34;3.00;;;2.70;;
4468;SDS011;2247;42.666;23.292;2023-04-01T12:37:26;7.53;;;3.10;;
4468;SDS011;2247;42.666;23.292;2023-04-01T12:40:06;8.60;;;3.50;;
4468;SDS011;2247;42.666;23.292;2023-04-01T12:45:42;4.93;;;3.30;;
4468;SDS011;2247;42.666;23.292;2023-04-01T12:51:23;8.90;;;3.40;;
4468;SDS011;2247;42.666;23.292;2023-04-01T12:54:17;5.43;;;3.50;;
4468;SDS011;2247;42.666;23.292;2023-04-01T12:57:14;6.90;;;3.43;;
4468;SDS011;2247;42.666;23.292;2023-04-01T13:00:10;6.87;;;3.10;;
4468;SDS011;2247;42.666;23.292;2023-04-01T13:02:51;6.13;;;3.57;;
4468;SDS011;2247;42.666;23.292;2023-04-01T13:05:36;8.73;;;3.70;;
4468;SDS011;2247;42.666;23.292;2023-04-01T13:08:26;10.57;;;3.83;;
4468;SDS011;2247;42.666;23.292;2023-04-01T13:11:08;6.00;;;3.60;;
4468;SDS011;2247;42.666;23.292;2023-04-01T13:13:43;5.57;;;3.27;;
4468;SDS011;2247;42.666;23.292;2023-04-01T13:16:24;4.93;;;2.33;;
4468;SDS011;2247;42.666;23.292;2023-04-01T13:18:56;3.77;;;2.40;;
4468;SDS011;2247;42.666;23.292;2023-04-01T13:21:31;2.63;;;2.40;;
4468;SDS011;2247;42.666;23.292;2023-04-01T13:24:09;6.97;;;2.43;;
4468;SDS011;2247;42.666;23.292;2023-04-01T13:26:53;4.53;;;2.23;;
4468;SDS011;2247;42.666;23.292;2023-04-01T13:29:27;3.87;;;2.77;;
4468;SDS011;2247;42.666;23.292;2023-04-01T13:32:05;3.97;;;2.30;;
4468;SDS011;2247;42.666;23.292;2023-04-01T13:34:47;9.77;;;3.77;;
4468;SDS011;2247;42.666;23.292;2023-04-01T13:37:30;4.10;;;2.00;;
4468;SDS011;2247;42.666;23.292;2023-04-01T13:40:15;4.20;;;1.97;;
4468;SDS011;2247;42.666;23.292;2023-04-01T13:42:53;1.70;;;1.60;;
4468;SDS011;2247;42.666;23.292;2023-04-01T13:45:26;3.17;;;1.90;;
4468;SDS011;2247;42.666;23.292;2023-04-01T13:54:01;3.57;;;1.67;;
4468;SDS011;2247;42.666;23.292;2023-04-01T13:56:41;3.50;;;1.70;;
4468;SDS011;2247;42.666;23.292;2023-04-01T13:59:37;7.63;;;2.47;;
4468;SDS011;2247;42.666;23.292;2023-04-01T14:02:22;1.97;;;1.43;;
4468;SDS011;2247;42.666;23.292;2023-04-01T14:05:09;3.70;;;1.87;;
4468;SDS011;2247;42.666;23.292;2023-04-01T14:07:55;3.57;;;1.67;;
4468;SDS011;2247;42.666;23.292;2023-04-01T14:10:31;3.10;;;2.00;;
4468;SDS011;2247;42.666;23.292;2023-04-01T14:13:07;1.60;;;1.50;;
4468;SDS011;2247;42.666;23.292;2023-04-01T14:15:55;4.60;;;1.87;;
4468;SDS011;2247;42.666;23.292;2023-04-01T14:21:34;2.50;;;1.70;;
4468;SDS011;2247;42.666;23.292;2023-04-01T14:24:18;1.53;;;1.43;;
4468;SDS011;2247;42.666;23.292;2023-04-01T14:30:27;1.73;;;1.50;;
4468;SDS011;2247;42.666;23.292;2023-04-01T14:33:13;4.47;;;1.60;;
4468;SDS011;2247;42.666;23.292;2023-04-01T14:35:53;1.47;;;1.30;;
4468;SDS011;2247;42.666;23.292;2023-04-01T14:41:25;2.10;;;1.30;;
4468;SDS011;2247;42.666;23.292;2023-04-01T14:44:17;4.80;;;1.60;;
4468;SDS011;2247;42.666;23.292;2023-04-01T14:46:59;3.03;;;1.43;;
4468;SDS011;2247;42.666;23.292;2023-04-01T14:49:41;1.27;;;1.17;;
4468;SDS011;2247;42.666;23.292;2023-04-01T14:52:11;1.60;;;1.50;;
4468;SDS011;2247;42.666;23.292;2023-04-01T14:54:42;1.77;;;1.60;;
4468;SDS011;2247;42.666;23.292;2023-04-01T14:57:13;2.47;;;1.60;;
4468;SDS011;2247;42.666;23.292;2023-04-01T14:59:46;5.43;;;1.77;;
4468;SDS011;2247;42.666;23.292;2023-04-01T15:02:22;5.20;;;1.30;;
4468;SDS011;2247;42.666;23.292;2023-04-01T15:05:03;1.63;;;1.30;;
4468;SDS011;2247;42.666;23.292;2023-04-01T15:10:35;2.83;;;1.10;;
4468;SDS011;2247;42.666;23.292;2023-04-01T15:13:24;1.47;;;1.37;;
4468;SDS011;2247;42.666;23.292;2023-04-01T15:16:13;5.80;;;1.57;;
4468;SDS011;2247;42.666;23.292;2023-04-01T15:18:49;4.23;;;1.50;;
4468;SDS011;2247;42.666;23.292;2023-04-01T15:21:40;7.27;;;1.83;;
4468;SDS011;2247;42.666;23.292;2023-04-01T15:24:20;2.63;;;1.77;;
4468;SDS011;2247;42.666;23.292;2023-04-01T15:26:59;2.80;;;1.87;;
4468;SDS011;2247;42.666;23.292;2023-04-01T15:29:58;5.10;;;1.73;;
4468;SDS011;2247;42.666;23.292;2023-04-01T15:32:46;1.77;;;1.67;;
4468;SDS011;2247;42.666;23.292;2023-04-01T15:35:28;6.90;;;2.67;;
4468;SDS011;2247;42.666;23.292;2023-04-01T15:38:08;3.13;;;1.67;;
4468;SDS011;2247;42.666;23.292;2023-04-01T15:40:44;5.07;;;2.30;;
4468;SDS011;2247;42.666;23.292;2023-04-01T15:43:20;4.97;;;2.37;;
4468;SDS011;2247;42.666;23.292;2023-04-01T15:45:58;2.50;;;2.00;;
4468;SDS011;2247;42.666;23.292;2023-04-01T15:48:41;2.40;;;2.00;;
4468;SDS011;2247;42.666;23.292;2023-04-01T15:51:24;0.93;;;0.93;;
4468;SDS011;2247;42.666;23.292;2023-04-01T15:54:15;0.90;;;0.90;;
4468;SDS011;2247;42.666;23.292;2023-04-01T15:56:55;1.77;;;1.67;;
4468;SDS011;2247;42.666;23.292;2023-04-01T15:59:53;6.53;;;2.23;;
4468;SDS011;2247;42.666;23.292;2023-04-01T16:02:29;5.30;;;1.70;;
4468;SDS011;2247;42.666;23.292;2023-04-01T16:05:00;2.50;;;1.40;;
4468;SDS011;2247;42.666;23.292;2023-04-01T16:07:48;3.80;;;1.80;;
4468;SDS011;2247;42.666;23.292;2023-04-01T16:10:30;2.83;;;1.50;;
4468;SDS011;2247;42.666;23.292;2023-04-01T16:13:12;1.93;;;1.73;;
4468;SDS011;2247;42.666;23.292;2023-04-01T16:15:51;2.77;;;2.17;;
4468;SDS011;2247;42.666;23.292;2023-04-01T16:18:36;2.33;;;2.13;;
4468;SDS011;2247;42.666;23.292;2023-04-01T16:21:24;2.43;;;2.30;;
4468;SDS011;2247;42.666;23.292;2023-04-01T16:24:05;4.07;;;2.43;;
4468;SDS011;2247;42.666;23.292;2023-04-01T16:26:45;2.13;;;2.03;;
4468;SDS011;2247;42.666;23.292;2023-04-01T16:29:22;2.73;;;2.50;;
4468;SDS011;2247;42.666;23.292;2023-04-01T16:31:56;2.87;;;2.10;;
4468;SDS011;2247;42.666;23.292;2023-04-01T16:34:41;2.43;;;2.23;;
4468;SDS011;2247;42.666;23.292;2023-04-01T16:37:15;2.83;;;2.30;;
4468;SDS011;2247;42.666;23.292;2023-04-01T16:39:47;3.30;;;2.60;;
4468;SDS011;2247;42.666;23.292;2023-04-01T16:42:24;2.90;;;2.47;;
4468;SDS011;2247;42.666;23.292;2023-04-01T16:45:00;2.57;;;2.37;;
4468;SDS011;2247;42.666;23.292;2023-04-01T16:47:45;2.03;;;1.77;;
4468;SDS011;2247;42.666;23.292;2023-04-01T16:50:17;2.60;;;2.10;;
4468;SDS011;2247;42.666;23.292;2023-04-01T16:52:53;4.30;;;1.80;;
4468;SDS011;2247;42.666;23.292;2023-04-01T16:55:42;2.17;;;2.07;;
4468;SDS011;2247;42.666;23.292;2023-04-01T16:58:18;2.00;;;1.90;;
4468;SDS011;2247;42.666;23.292;2023-04-01T17:00:50;1.90;;;1.80;;
4468;SDS011;2247;42.666;23.292;2023-04-01T17:03:22;1.57;;;1.47;;
4468;SDS011;2247;42.666;23.292;2023-04-01T17:05:59;5.70;;;1.57;;
4468;SDS011;2247;42.666;23.292;2023-04-01T17:08:48;1.10;;;1.10;;
4468;SDS011;2247;42.666;23.292;2023-04-01T17:11:26;1.60;;;1.50;;
4468;SDS011;2247;42.666;23.292;2023-04-01T17:14:00;1.30;;;1.20;;
4468;SDS011;2247;42.666;23.292;2023-04-01T17:16:42;1.40;;;1.30;;
4468;SDS011;2247;42.666;23.292;2023-04-01T17:19:22;1.17;;;1.17;;
4468;SDS011;2247;42.666;23.292;2023-04-01T17:22:01;3.90;;;1.50;;
4468;SDS011;2247;42.666;23.292;2023-04-01T17:24:38;1.70;;;1.60;;
4468;SDS011;2247;42.666;23.292;2023-04-01T17:27:20;1.80;;;1.70;;
4468;SDS011;2247;42.666;23.292;2023-04-01T17:30:02;2.23;;;2.03;;
4468;SDS011;2247;42.666;23.292;2023-04-01T17:32:50;2.67;;;2.47;;
4468;SDS011;2247;42.666;23.292;2023-04-01T17:35:28;4.77;;;3.97;;
4468;SDS011;2247;42.666;23.292;2023-04-01T17:38:03;7.73;;;4.70;;
4468;SDS011;2247;42.666;23.292;2023-04-01T17:40:43;7.00;;;4.90;;
4468;SDS011;2247;42.666;23.292;2023-04-01T17:43:22;2.70;;;2.50;;
4468;SDS011;2247;42.666;23.292;2023-04-01T17:46:03;10.03;;;5.37;;
4468;SDS011;2247;42.666;23.292;2023-04-01T17:48:40;11.60;;;6.10;;
4468;SDS011;2247;42.666;23.292;2023-04-01T17:51:21;2.03;;;1.93;;
4468;SDS011;2247;42.666;23.292;2023-04-01T17:53:57;2.03;;;1.93;;
4468;SDS011;2247;42.666;23.292;2023-04-01T17:56:38;2.40;;;2.20;;
4468;SDS011;2247;42.666;23.292;2023-04-01T17:59:17;2.07;;;1.97;;
4468;SDS011;2247;42.666;23.292;2023-04-01T18:01:57;2.10;;;2.00;;
4468;SDS011;2247;42.666;23.292;2023-04-01T18:04:42;3.33;;;2.67;;
4468;SDS011;2247;42.666;23.292;2023-04-01T18:07:34;2.60;;;2.40;;
4468;SDS011;2247;42.666;23.292;2023-04-01T18:10:14;2.30;;;1.80;;
4468;SDS011;2247;42.666;23.292;2023-04-01T18:13:02;1.73;;;1.63;;
4468;SDS011;2247;42.666;23.292;2023-04-01T18:15:43;3.73;;;1.87;;
4468;SDS011;2247;42.666;23.292;2023-04-01T18:18:30;1.70;;;1.60;;
4468;SDS011;2247;42.666;23.292;2023-04-01T18:21:05;2.13;;;2.00;;
4468;SDS011;2247;42.666;23.292;2023-04-01T18:23:43;2.63;;;2.43;;
4468;SDS011;2247;42.666;23.292;2023-04-01T18:26:20;2.83;;;2.60;;
4468;SDS011;2247;42.666;23.292;2023-04-01T18:28:53;2.97;;;2.63;;
4468;SDS011;2247;42.666;23.292;2023-04-01T18:31:24;3.10;;;2.87;;
4468;SDS011;2247;42.666;23.292;2023-04-01T18:34:02;3.07;;;2.70;;